Latest Weather Observations for Mawson*

IDT60801

Issued at 2:02 pm EST Saturday 28 May 2016 (issued every 30 minutes, with the page automatically refreshed every 10 minutes)

About weather observations | Map of weather stations | Latest weather observations for ANT | Other Formats
Station Details ID: 300001 Name: MAWSON Lat: -67.60 Lon: 62.88 Height: 9.9 m
Data from the previous 72 hours. | See also: Recent months at Mawson*
Date/Time
EST
Temp
°C
App
Temp
°C
Dew
Point
Rel
Hum
%
Delta-T
°C
Wind Press
QNH
hPa
Press
MSL
hPa
Rain
since 9 am
mm
Dir
 
Spd
km/h
Gust
km/h
Spd
kts
Gust
kts
28/02:00pm -6.5 -26.6 -20.8 31 - SE 87 104 47 56 989.8 - -
28/01:30pm -6.8 -26.9 -20.0 34 - SE 87 109 47 59 989.3 - -
28/01:00pm -6.0 -28.2 -20.3 31 - SE 98 128 53 69 988.6 988.8 -
28/12:30pm -5.8 -29.2 -20.9 29 - SE 104 132 56 71 987.4 - -
28/12:00pm -5.9 -30.2 -19.9 32 - SE 109 133 59 72 986.9 - -
28/11:30am -6.6 -31.3 -19.5 35 - SE 111 132 60 71 986.6 - -
28/11:00am -8.9 -32.5 -17.9 48 - SE 106 150 57 81 986.2 - -
28/10:30am -8.6 -32.4 -16.9 51 - SE 107 145 58 78 986.0 - -
28/10:00am -7.7 -32.3 -18.1 43 - SE 111 139 60 75 984.8 985.0 -
28/09:30am -7.0 -32.0 -18.9 38 - SE 113 143 61 77 984.3 - -
28/09:00am -9.3 -33.3 -14.1 68 - SE 109 156 59 84 985.2 - -
28/08:56am -10.0 -35.2 -14.4 70 - SE 115 156 62 84 984.9 - -
28/08:30am -7.9 -31.2 -18.5 42 - SE 104 135 56 73 984.6 - -
28/08:00am -7.6 -30.1 -18.3 42 - SE 100 128 54 69 985.0 - -
28/07:30am -8.6 -29.7 -16.2 54 - SE 93 117 50 63 986.7 - -
28/07:00am -8.6 -30.4 -18.4 45 - SE 96 124 52 67 986.3 986.5 -
28/06:30am -9.1 -30.6 -17.8 49 - SE 95 119 51 64 985.8 - -
28/06:00am -9.7 -32.2 -18.6 48 - SE 100 130 54 70 985.9 - -
28/05:30am -9.3 -31.9 -19.3 44 - SE 100 137 54 74 985.5 - -
28/05:00am -9.5 -32.1 -20.0 42 - SE 100 120 54 65 984.8 - -
28/04:30am -10.0 -31.8 -19.6 45 - SE 96 128 52 69 984.6 - -
28/04:00am -10.3 -32.9 -19.2 48 - SE 100 128 54 69 984.4 984.6 -
28/03:30am -10.5 -32.1 -19.6 47 - SE 95 119 51 64 984.7 - -
28/03:00am -11.0 -34.0 -19.6 49 - SE 102 128 55 69 984.7 - -
28/02:30am -12.0 -34.8 -16.9 67 - SE 102 135 55 73 984.7 - -
28/02:00am -12.0 -35.7 -18.2 60 - SE 106 139 57 75 983.9 - -
28/01:30am -10.8 -34.1 -18.9 51 - SE 104 137 56 74 984.0 - -
28/01:00am -10.5 -30.8 -16.3 62 - SE 89 120 48 65 983.7 983.9 -
28/12:30am -10.5 -32.1 -14.9 70 - SE 96 119 52 64 982.6 - -
28/12:00am -11.8 -34.2 -15.2 76 - SE 100 124 54 67 982.7 - -
 
Date/Time
EST
Temp
°C
App
Temp
°C
Dew
Point
Rel
Hum
%
Delta-T
°C
Wind Press
QNH
hPa
Press
MSL
hPa
Rain
since 9 am
mm
Dir
 
Spd
km/h
Gust
km/h
Spd
kts
Gust
kts
27/11:30pm -11.4 -32.8 -14.0 81 - SE 95 128 51 69 981.2 - -
27/11:26pm -11.9 -32.1 -13.6 87 - SE 89 128 48 69 981.1 - -
27/11:25pm -12.2 -31.1 -13.8 88 - SE 82 106 44 57 981.5 - -
27/11:24pm -13.3 -31.9 -15.3 85 - SE 80 96 43 52 982.2 - -
27/11:00pm -12.2 -35.9 -14.6 82 - SE 107 133 58 72 980.7 - -
27/10:30pm -13.3 -38.1 -14.9 88 - SE 113 135 61 73 980.0 - -
27/10:00pm -13.4 -39.4 -14.8 89 - SE 119 139 64 75 978.6 978.8 -
27/09:30pm -14.1 -40.3 -15.5 89 - SE 120 141 65 76 978.1 - -
27/09:00pm -13.8 -40.4 -15.2 89 - SE 122 145 66 78 976.3 - -
27/08:30pm -13.5 -40.8 -14.8 90 - SE 126 146 68 79 975.4 - -
27/08:00pm -14.4 -41.8 -15.9 88 - SE 126 150 68 81 975.3 - -
27/07:30pm -14.2 -42.7 -15.6 89 - SE 132 152 71 82 974.1 - -
27/07:00pm -13.9 -43.7 -15.3 89 - ESE 139 161 75 87 972.1 972.2 -
27/06:30pm -14.1 -43.1 -15.5 89 - SE 135 154 73 83 972.0 - -
27/06:00pm -14.2 -42.7 -15.7 88 - SE 132 154 71 83 971.3 - -
27/05:33pm -14.3 -40.5 -15.8 88 - ESE 120 152 65 82 971.4 - -
27/05:30pm -14.2 -40.2 -15.6 89 - ESE 119 152 64 82 969.1 - -
27/05:00pm -14.5 -43.0 -16.0 88 - SE 132 152 71 82 970.3 - -
27/04:31pm -14.3 -41.3 -15.8 88 - SE 124 143 67 77 969.8 - -
27/04:30pm -14.2 -41.5 -15.6 89 - SE 126 143 68 77 969.7 - -
27/04:00pm -14.1 -40.3 -15.5 89 - SE 120 145 65 78 969.6 969.7 -
27/03:30pm -14.1 -40.1 -15.6 88 - SE 119 145 64 78 969.1 - -
27/03:01pm -14.0 -41.0 -15.7 87 - SE 124 145 67 78 968.6 - -
27/03:00pm -13.6 -40.2 -15.2 88 - SE 122 139 66 75 968.9 - -
27/02:30pm -14.8 -40.5 -16.5 87 - SE 117 137 63 74 968.9 - -
27/02:00pm -14.7 -38.9 -16.9 83 - SE 109 128 59 69 969.1 - -
27/01:30pm -14.8 -37.7 -17.9 77 - SE 102 128 55 69 969.4 - -
27/01:14pm -14.2 -37.5 -18.8 68 - SE 104 122 56 66 969.1 - -
27/01:00pm -14.4 -38.1 -19.7 64 - SE 106 122 57 66 969.3 969.4 -
27/12:33pm -14.6 -38.0 -20.2 62 - SE 104 122 56 66 969.2 - -
27/12:30pm -14.4 -38.1 -20.6 59 - SE 106 122 57 66 969.0 - -
27/12:28pm -14.7 -38.1 -20.9 59 - SE 104 122 56 66 969.3 - -
27/12:00pm -15.5 -39.4 -20.9 63 - SE 107 122 58 66 968.6 - -
27/11:30am -15.3 -39.2 -25.0 43 - SE 106 122 57 66 968.0 - -
27/11:01am -15.8 -38.2 -26.5 39 - SE 98 117 53 63 968.2 - -
27/11:00am -15.6 -38.0 -26.3 39 - SE 98 113 53 61 968.3 - -
27/10:47am -15.8 -38.2 -26.8 38 - SE 98 117 53 63 968.4 - -
27/10:30am -16.1 -38.5 -26.8 39 - SE 98 113 53 61 968.4 - -
27/10:17am -16.6 -37.7 -26.7 41 - SE 91 113 49 61 968.4 - -
27/10:00am -16.6 -38.1 -27.3 39 - SE 93 109 50 59 968.3 968.4 -
27/09:34am -17.2 -37.9 -27.5 40 - SE 89 111 48 60 968.1 - -
27/09:30am -17.7 -38.4 -28.0 40 - SE 89 106 48 57 968.5 - -
27/09:00am -17.3 -38.0 -28.2 38 - SE 89 106 48 57 968.5 - -
27/08:59am -17.3 -37.6 -27.9 39 - SE 87 106 47 57 968.3 - -
27/08:30am -17.8 -37.8 -28.3 39 - SE 85 96 46 52 968.7 - -
27/08:00am -18.0 -37.4 -29.1 37 - SE 82 93 44 50 968.5 - -
27/07:30am -17.8 -36.1 -29.2 36 - SE 76 87 41 47 968.6 - -
27/07:00am -18.0 -35.1 -29.1 37 - SE 70 83 38 45 968.5 968.6 -
27/06:30am -17.7 -34.3 -29.7 34 - SE 67 78 36 42 967.9 - -
27/06:00am -17.7 -34.8 -29.7 34 - SE 70 80 38 43 967.2 - -
27/05:30am -17.9 -34.8 -29.9 34 - SE 69 80 37 43 967.2 - -
27/05:00am -18.4 -33.8 -29.7 36 - ESE 61 72 33 39 967.2 - -
27/04:37am -16.8 -33.7 -30.2 30 - ESE 69 74 37 40 966.7 - -
27/04:33am -16.6 -29.9 -30.0 30 - ESE 50 72 27 39 966.8 - -
27/04:30am -16.2 -29.2 -30.0 29 - ESE 48 63 26 34 966.8 - -
27/04:05am -16.1 -28.7 -29.6 30 - ESE 46 65 25 35 966.9 - -
27/04:00am -15.4 -28.0 -29.3 29 - ESE 46 59 25 32 966.8 967.0 -
27/03:30am -16.3 -28.3 -29.8 30 - ESE 43 56 23 30 966.8 - -
27/03:16am -17.0 -30.7 -30.4 30 - ESE 52 70 28 38 966.8 - -
27/03:00am -18.1 -32.8 -30.1 34 - ESE 57 70 31 38 966.3 - -
27/02:54am -17.9 -32.4 -29.6 35 - ESE 56 69 30 37 966.1 - -
27/02:51am -18.5 -28.4 -29.2 38 - E 32 57 17 31 966.3 - -
27/02:42am -19.3 -29.4 -30.3 37 - E 33 41 18 22 966.9 - -
27/02:30am -19.2 -33.3 -29.6 39 - ESE 54 61 29 33 966.4 - -
27/02:00am -18.4 -30.4 -29.7 36 - ESE 43 54 23 29 966.2 - -
27/01:30am -19.5 -31.7 -29.4 41 - ESE 44 54 24 29 966.2 - -
27/01:00am -19.6 -31.8 -29.4 41 - ESE 44 52 24 28 966.2 966.4 -
27/12:37am -18.6 -28.5 -29.3 38 - SE 32 46 17 25 966.1 - -
27/12:30am -18.0 -23.5 -28.3 40 - SSW 9 28 5 15 966.4 - -
27/12:00am -19.6 -25.5 -26.9 52 - NW 11 20 6 11 966.3 - -
 
Date/Time
EST
Temp
°C
App
Temp
°C
Dew
Point
Rel
Hum
%
Delta-T
°C
Wind Press
QNH
hPa
Press
MSL
hPa
Rain
since 9 am
mm
Dir
 
Spd
km/h
Gust
km/h
Spd
kts
Gust
kts
26/11:30pm -19.3 -25.5 -27.1 50 - W 13 17 7 9 966.2 - -
26/11:00pm -19.2 -24.7 -27.4 48 - W 9 20 5 11 966.1 - -
26/10:30pm -17.8 -26.2 -27.8 41 - ESE 24 35 13 19 965.9 - -
26/10:00pm -17.8 -27.7 -28.3 39 - ESE 32 44 17 24 966.1 966.3 -
26/09:55pm -17.7 -26.8 -28.2 39 - ESE 28 44 15 24 966.2 - -
26/09:30pm -19.6 -27.0 -29.7 40 - SSW 19 22 10 12 966.8 - -
26/09:00pm -19.8 -24.3 -27.5 50 - ENE 4 7 2 4 967.2 - -
26/08:30pm -19.9 -24.5 -28.0 48 - WNW 4 9 2 5 967.3 - -
26/08:00pm -19.1 -24.2 -27.8 46 - W 7 13 4 7 968.1 - -
26/07:30pm -18.3 -23.8 -28.3 41 - SW 9 13 5 7 968.3 - -
26/07:00pm -18.0 -24.6 -27.5 43 - E 15 24 8 13 968.7 968.8 -
26/06:30pm -18.8 -26.2 -28.5 42 - SW 19 26 10 14 969.1 - -
26/06:10pm -17.6 -24.6 -27.6 41 - E 17 28 9 15 969.3 - -
26/06:00pm -18.3 -29.5 -27.8 43 - SE 39 50 21 27 969.1 - -
26/05:30pm -18.4 -29.2 -27.8 43 - SE 37 46 20 25 969.3 - -
26/05:00pm -18.3 -30.3 -28.0 42 - SE 43 50 23 27 969.7 - -
26/04:30pm -19.9 -31.5 -28.0 48 - SE 41 52 22 28 970.2 - -
26/04:00pm -17.6 -29.6 -27.6 41 - SE 43 52 23 28 970.9 971.0 -
26/03:30pm -18.6 -31.1 -28.5 41 - SE 46 56 25 30 971.2 - -
26/03:00pm -19.4 -33.1 -28.5 44 - SE 52 57 28 31 971.6 - -
26/02:30pm -18.5 -30.5 -29.2 38 - SE 43 57 23 31 972.4 - -
26/02:00pm -18.1 -30.1 -28.3 40 - SE 43 50 23 27 973.1 - -
26/01:39pm -18.2 -29.8 -29.5 36 - ESE 41 59 22 32 973.6 - -
26/01:36pm -17.5 -28.4 -29.8 33 - ESE 37 50 20 27 973.8 - -
26/01:30pm -18.4 -28.3 -28.4 41 - SE 32 44 17 24 973.9 - -
26/01:00pm -19.8 -31.0 -28.9 44 - SSE 39 48 21 26 974.5 974.6 -
26/12:43pm -19.4 -30.3 -29.3 41 - SSE 37 46 20 25 975.0 - -
26/12:37pm -18.6 -27.7 -28.8 40 - SE 28 33 15 18 975.1 - -
26/12:30pm -19.7 -31.9 -29.3 42 - SSE 44 50 24 27 975.3 - -
26/12:00pm -19.2 -28.3 -28.3 44 - SE 28 33 15 18 976.0 - -
26/11:30am -17.6 -30.9 -28.7 37 - SE 50 61 27 33 976.4 - -
26/11:20am -18.9 -33.4 -29.6 38 - SE 56 61 30 33 976.5 - -
26/11:16am -18.3 -28.8 -28.5 40 - SE 35 54 19 29 976.6 - -
26/11:00am -19.5 -31.1 -29.4 41 - SSE 41 48 22 26 977.2 - -
26/10:30am -18.5 -30.1 -28.2 42 - SE 41 52 22 28 977.8 - -
26/10:00am -18.1 -30.3 -28.9 38 - SE 44 59 24 32 978.4 978.6 -
26/09:30am -16.7 -30.4 -29.1 33 - SE 52 61 28 33 979.2 - -
26/09:00am -16.7 -31.2 -28.8 34 - SE 56 69 30 37 979.6 - -
26/08:30am -16.3 -29.6 -28.8 33 - SE 50 59 27 32 980.3 - -
26/08:00am -16.4 -30.1 -29.2 32 - SE 52 65 28 35 981.1 - -
26/07:30am -19.0 -32.3 -30.0 37 - SSE 50 57 27 31 981.9 - -
26/07:00am -16.3 -28.9 -29.1 32 - SE 46 61 25 33 982.3 982.5 -
26/06:30am -16.3 -31.0 -29.4 31 - SE 57 69 31 37 982.9 - -
26/06:00am -16.6 -30.3 -29.4 32 - SE 52 65 28 35 983.8 - -
26/05:30am -16.7 -31.2 -28.8 34 - SE 56 70 30 38 984.4 - -
26/05:00am -16.9 -31.4 -29.3 33 - SE 56 67 30 36 984.8 - -
26/04:30am -16.8 -30.9 -28.9 34 - SE 54 65 29 35 985.2 - -
26/04:00am -16.6 -32.0 -29.0 33 - SE 61 74 33 40 985.6 985.8 -
26/03:30am -16.9 -32.3 -28.4 36 - SE 61 70 33 38 986.0 - -
26/03:00am -16.6 -31.2 -28.4 35 - SE 57 70 31 38 986.5 - -
26/02:30am -16.4 -28.9 -28.2 35 - SE 46 57 25 31 987.1 - -
26/02:00am -16.3 -28.8 -27.5 37 - SE 46 57 25 31 987.6 - -
26/01:30am -16.1 -28.6 -26.5 40 - SE 46 59 25 32 988.2 - -
26/01:00am -16.1 -28.2 -27.1 38 - SE 44 61 24 33 988.7 988.9 -
26/12:53am -16.8 -28.7 -26.6 42 - SE 43 61 23 33 988.8 - -
26/12:30am -17.5 -27.9 -27.0 43 - SSE 35 44 19 24 989.1 - -
26/12:00am -16.0 -28.5 -27.6 36 - SE 46 57 25 31 989.4 - -
 
Date/Time
EST
Temp
°C
App
Temp
°C
Dew
Point
Rel
Hum
%
Delta-T
°C
Wind Press
QNH
hPa
Press
MSL
hPa
Rain
since 9 am
mm
Dir
 
Spd
km/h
Gust
km/h
Spd
kts
Gust
kts
25/11:30pm -15.9 -29.9 -26.9 38 - SE 54 63 29 34 989.7 - -
25/11:00pm -16.1 -30.5 -27.1 38 - SE 56 67 30 36 990.0 - -
25/10:30pm -15.8 -29.8 -26.8 38 - SE 54 61 29 33 990.3 - -
25/10:00pm -16.1 -29.4 -26.8 39 - SE 50 59 27 32 990.8 991.0 -
25/09:30pm -16.1 -31.1 -26.8 39 - SE 59 67 32 36 990.9 - -
25/09:00pm -16.1 -30.5 -26.8 39 - SE 56 67 30 36 990.9 - -
25/08:30pm -16.3 -27.5 -25.9 43 - SE 39 50 21 27 991.4 - -
25/08:00pm -16.8 -28.9 -26.4 43 - SSE 44 52 24 28 991.5 - -
25/07:30pm -16.9 -29.0 -26.5 43 - SSE 44 52 24 28 991.7 - -
25/07:13pm -16.2 -27.4 -26.3 41 - SSE 39 57 21 31 991.8 - -
25/07:00pm -17.4 -29.3 -26.9 43 - SSE 43 48 23 26 991.9 992.1 -
25/06:30pm -17.1 -29.2 -26.7 43 - SSE 44 50 24 27 992.1 - -
25/06:24pm -17.1 -29.0 -26.7 43 - SSE 43 46 23 25 992.1 - -

Other Formats:

Comma delimited format used in spreadsheet applications
http://www.bom.gov.au/fwo/IDT60803/IDT60803.89564.axf

JavaScript Object Notation format (JSON) in row-major order
http://www.bom.gov.au/fwo/IDT60803/IDT60803.89564.json